sensor_id;sensor_type;location;lat;lon;timestamp;P1;durP1;ratioP1;P2;durP2;ratioP2
55776;SDS011;54079;44.540;18.784;2023-08-07T00:00:36;0.28;;;0.13;;
55776;SDS011;54079;44.540;18.784;2023-08-07T00:03:02;0.00;;;0.00;;
55776;SDS011;54079;44.540;18.784;2023-08-07T00:05:28;0.52;;;0.10;;
55776;SDS011;54079;44.540;18.784;2023-08-07T00:07:55;0.80;;;0.10;;
55776;SDS011;54079;44.540;18.784;2023-08-07T00:10:21;1.75;;;0.20;;
55776;SDS011;54079;44.540;18.784;2023-08-07T00:12:47;0.45;;;0.00;;
55776;SDS011;54079;44.540;18.784;2023-08-07T00:15:13;0.55;;;0.20;;
55776;SDS011;54079;44.540;18.784;2023-08-07T00:17:39;0.30;;;0.10;;
55776;SDS011;54079;44.540;18.784;2023-08-07T00:20:06;0.10;;;0.00;;
55776;SDS011;54079;44.540;18.784;2023-08-07T00:22:32;0.30;;;0.20;;
55776;SDS011;54079;44.540;18.784;2023-08-07T00:24:58;0.57;;;0.00;;
55776;SDS011;54079;44.540;18.784;2023-08-07T00:27:24;0.22;;;0.10;;
55776;SDS011;54079;44.540;18.784;2023-08-07T00:29:50;1.38;;;0.43;;
55776;SDS011;54079;44.540;18.784;2023-08-07T00:32:17;0.68;;;0.20;;
55776;SDS011;54079;44.540;18.784;2023-08-07T00:34:42;0.20;;;0.10;;
55776;SDS011;54079;44.540;18.784;2023-08-07T00:37:08;2.17;;;0.20;;
55776;SDS011;54079;44.540;18.784;2023-08-07T00:39:34;0.30;;;0.20;;
55776;SDS011;54079;44.540;18.784;2023-08-07T00:42:00;1.05;;;0.08;;
55776;SDS011;54079;44.540;18.784;2023-08-07T00:44:26;1.00;;;0.20;;
55776;SDS011;54079;44.540;18.784;2023-08-07T00:46:52;0.38;;;0.10;;
55776;SDS011;54079;44.540;18.784;2023-08-07T00:49:19;0.20;;;0.08;;
55776;SDS011;54079;44.540;18.784;2023-08-07T00:51:45;1.35;;;0.00;;
55776;SDS011;54079;44.540;18.784;2023-08-07T00:54:14;1.05;;;0.13;;
55776;SDS011;54079;44.540;18.784;2023-08-07T00:56:42;0.30;;;0.10;;
55776;SDS011;54079;44.540;18.784;2023-08-07T00:59:08;0.25;;;0.10;;
55776;SDS011;54079;44.540;18.784;2023-08-07T01:01:35;1.65;;;0.10;;
55776;SDS011;54079;44.540;18.784;2023-08-07T01:04:01;2.10;;;0.17;;
55776;SDS011;54079;44.540;18.784;2023-08-07T01:06:27;1.10;;;0.13;;
55776;SDS011;54079;44.540;18.784;2023-08-07T01:08:53;0.40;;;0.20;;
55776;SDS011;54079;44.540;18.784;2023-08-07T01:17:11;0.10;;;0.05;;
55776;SDS011;54079;44.540;18.784;2023-08-07T01:19:40;0.40;;;0.20;;
55776;SDS011;54079;44.540;18.784;2023-08-07T01:24:38;1.10;;;0.20;;
55776;SDS011;54079;44.540;18.784;2023-08-07T01:32:41;0.52;;;0.00;;
55776;SDS011;54079;44.540;18.784;2023-08-07T01:35:14;0.40;;;0.03;;
55776;SDS011;54079;44.540;18.784;2023-08-07T01:37:43;1.35;;;0.20;;
55776;SDS011;54079;44.540;18.784;2023-08-07T01:40:12;0.15;;;0.15;;
55776;SDS011;54079;44.540;18.784;2023-08-07T01:42:39;0.30;;;0.00;;
55776;SDS011;54079;44.540;18.784;2023-08-07T01:45:05;0.50;;;0.10;;
55776;SDS011;54079;44.540;18.784;2023-08-07T01:47:31;0.10;;;0.10;;
55776;SDS011;54079;44.540;18.784;2023-08-07T01:49:57;0.10;;;0.00;;
55776;SDS011;54079;44.540;18.784;2023-08-07T01:52:23;0.43;;;0.10;;
55776;SDS011;54079;44.540;18.784;2023-08-07T01:54:49;0.98;;;0.30;;
55776;SDS011;54079;44.540;18.784;2023-08-07T01:57:15;0.45;;;0.10;;
55776;SDS011;54079;44.540;18.784;2023-08-07T01:59:41;0.47;;;0.15;;
55776;SDS011;54079;44.540;18.784;2023-08-07T02:02:08;0.10;;;0.10;;
55776;SDS011;54079;44.540;18.784;2023-08-07T02:04:34;0.50;;;0.05;;
55776;SDS011;54079;44.540;18.784;2023-08-07T02:07:00;0.57;;;0.20;;
55776;SDS011;54079;44.540;18.784;2023-08-07T02:09:26;0.10;;;0.10;;
55776;SDS011;54079;44.540;18.784;2023-08-07T02:11:52;0.00;;;0.00;;
55776;SDS011;54079;44.540;18.784;2023-08-07T02:14:18;0.10;;;0.05;;
55776;SDS011;54079;44.540;18.784;2023-08-07T02:16:44;0.30;;;0.10;;
55776;SDS011;54079;44.540;18.784;2023-08-07T02:19:10;0.70;;;0.20;;
55776;SDS011;54079;44.540;18.784;2023-08-07T02:21:36;0.30;;;0.00;;
55776;SDS011;54079;44.540;18.784;2023-08-07T02:24:01;0.15;;;0.05;;
55776;SDS011;54079;44.540;18.784;2023-08-07T02:26:27;0.47;;;0.00;;
55776;SDS011;54079;44.540;18.784;2023-08-07T02:28:53;0.30;;;0.17;;
55776;SDS011;54079;44.540;18.784;2023-08-07T02:31:19;0.28;;;0.00;;
55776;SDS011;54079;44.540;18.784;2023-08-07T02:33:45;0.10;;;0.00;;
55776;SDS011;54079;44.540;18.784;2023-08-07T02:36:11;0.65;;;0.00;;
55776;SDS011;54079;44.540;18.784;2023-08-07T02:38:37;0.32;;;0.10;;
55776;SDS011;54079;44.540;18.784;2023-08-07T02:41:03;0.00;;;0.00;;
55776;SDS011;54079;44.540;18.784;2023-08-07T02:43:29;0.25;;;0.00;;
55776;SDS011;54079;44.540;18.784;2023-08-07T02:45:58;0.00;;;0.00;;
55776;SDS011;54079;44.540;18.784;2023-08-07T02:48:24;0.98;;;0.10;;
55776;SDS011;54079;44.540;18.784;2023-08-07T02:50:50;0.85;;;0.10;;
55776;SDS011;54079;44.540;18.784;2023-08-07T02:53:16;0.70;;;0.15;;
55776;SDS011;54079;44.540;18.784;2023-08-07T02:55:43;0.20;;;0.17;;
55776;SDS011;54079;44.540;18.784;2023-08-07T02:58:09;0.20;;;0.10;;
55776;SDS011;54079;44.540;18.784;2023-08-07T03:00:35;0.08;;;0.00;;
55776;SDS011;54079;44.540;18.784;2023-08-07T03:03:01;1.75;;;0.20;;
55776;SDS011;54079;44.540;18.784;2023-08-07T03:05:27;0.57;;;0.10;;
55776;SDS011;54079;44.540;18.784;2023-08-07T03:07:53;0.20;;;0.10;;
55776;SDS011;54079;44.540;18.784;2023-08-07T03:10:19;0.80;;;0.22;;
55776;SDS011;54079;44.540;18.784;2023-08-07T03:12:45;0.10;;;0.10;;
55776;SDS011;54079;44.540;18.784;2023-08-07T03:15:11;0.43;;;0.25;;
55776;SDS011;54079;44.540;18.784;2023-08-07T03:17:37;0.10;;;0.05;;
55776;SDS011;54079;44.540;18.784;2023-08-07T03:20:03;0.30;;;0.00;;
55776;SDS011;54079;44.540;18.784;2023-08-07T03:22:30;1.35;;;0.10;;
55776;SDS011;54079;44.540;18.784;2023-08-07T03:24:56;1.60;;;0.00;;
55776;SDS011;54079;44.540;18.784;2023-08-07T03:27:21;1.75;;;0.00;;
55776;SDS011;54079;44.540;18.784;2023-08-07T03:29:47;2.70;;;0.20;;
55776;SDS011;54079;44.540;18.784;2023-08-07T03:32:13;0.20;;;0.15;;
55776;SDS011;54079;44.540;18.784;2023-08-07T03:34:39;0.00;;;0.00;;
55776;SDS011;54079;44.540;18.784;2023-08-07T03:37:05;0.20;;;0.00;;
55776;SDS011;54079;44.540;18.784;2023-08-07T03:39:31;0.10;;;0.00;;
55776;SDS011;54079;44.540;18.784;2023-08-07T03:41:57;0.13;;;0.00;;
55776;SDS011;54079;44.540;18.784;2023-08-07T03:44:23;0.10;;;0.10;;
55776;SDS011;54079;44.540;18.784;2023-08-07T03:46:49;1.27;;;0.17;;
55776;SDS011;54079;44.540;18.784;2023-08-07T03:49:16;1.33;;;0.20;;
55776;SDS011;54079;44.540;18.784;2023-08-07T03:51:42;0.40;;;0.30;;
55776;SDS011;54079;44.540;18.784;2023-08-07T03:54:08;0.40;;;0.20;;
55776;SDS011;54079;44.540;18.784;2023-08-07T03:56:34;0.30;;;0.10;;
55776;SDS011;54079;44.540;18.784;2023-08-07T03:59:03;0.45;;;0.10;;
55776;SDS011;54079;44.540;18.784;2023-08-07T04:01:29;0.03;;;0.03;;
55776;SDS011;54079;44.540;18.784;2023-08-07T04:03:55;0.10;;;0.00;;
55776;SDS011;54079;44.540;18.784;2023-08-07T04:06:21;0.40;;;0.20;;
55776;SDS011;54079;44.540;18.784;2023-08-07T04:08:47;0.95;;;0.10;;
55776;SDS011;54079;44.540;18.784;2023-08-07T04:11:13;1.63;;;0.17;;
55776;SDS011;54079;44.540;18.784;2023-08-07T04:13:39;0.00;;;0.00;;
55776;SDS011;54079;44.540;18.784;2023-08-07T04:16:05;0.20;;;0.00;;
55776;SDS011;54079;44.540;18.784;2023-08-07T04:18:31;0.05;;;0.00;;
55776;SDS011;54079;44.540;18.784;2023-08-07T04:20:58;0.20;;;0.00;;
55776;SDS011;54079;44.540;18.784;2023-08-07T04:23:25;0.13;;;0.10;;
55776;SDS011;54079;44.540;18.784;2023-08-07T04:25:52;1.05;;;0.17;;
55776;SDS011;54079;44.540;18.784;2023-08-07T04:28:18;0.30;;;0.10;;
55776;SDS011;54079;44.540;18.784;2023-08-07T04:30:45;0.25;;;0.00;;
55776;SDS011;54079;44.540;18.784;2023-08-07T04:33:13;0.22;;;0.00;;
55776;SDS011;54079;44.540;18.784;2023-08-07T04:35:39;1.00;;;0.10;;
55776;SDS011;54079;44.540;18.784;2023-08-07T04:38:05;0.10;;;0.00;;
55776;SDS011;54079;44.540;18.784;2023-08-07T04:40:31;0.45;;;0.45;;
55776;SDS011;54079;44.540;18.784;2023-08-07T04:42:57;0.20;;;0.10;;
55776;SDS011;54079;44.540;18.784;2023-08-07T04:45:23;0.03;;;0.00;;
55776;SDS011;54079;44.540;18.784;2023-08-07T04:47:49;0.63;;;0.20;;
55776;SDS011;54079;44.540;18.784;2023-08-07T04:50:15;0.10;;;0.10;;
55776;SDS011;54079;44.540;18.784;2023-08-07T04:52:41;0.10;;;0.10;;
55776;SDS011;54079;44.540;18.784;2023-08-07T04:55:07;0.13;;;0.13;;
55776;SDS011;54079;44.540;18.784;2023-08-07T04:57:33;0.10;;;0.08;;
55776;SDS011;54079;44.540;18.784;2023-08-07T04:59:59;1.35;;;0.00;;
55776;SDS011;54079;44.540;18.784;2023-08-07T05:02:25;0.95;;;0.40;;
55776;SDS011;54079;44.540;18.784;2023-08-07T05:04:51;3.35;;;1.10;;
55776;SDS011;54079;44.540;18.784;2023-08-07T05:07:17;0.93;;;0.32;;
55776;SDS011;54079;44.540;18.784;2023-08-07T05:09:43;1.15;;;0.10;;
55776;SDS011;54079;44.540;18.784;2023-08-07T05:12:09;1.25;;;0.20;;
55776;SDS011;54079;44.540;18.784;2023-08-07T05:14:35;0.10;;;0.10;;
55776;SDS011;54079;44.540;18.784;2023-08-07T05:17:01;0.10;;;0.00;;
55776;SDS011;54079;44.540;18.784;2023-08-07T05:19:27;1.20;;;0.30;;
55776;SDS011;54079;44.540;18.784;2023-08-07T05:21:52;0.10;;;0.10;;
55776;SDS011;54079;44.540;18.784;2023-08-07T05:24:18;0.35;;;0.00;;
55776;SDS011;54079;44.540;18.784;2023-08-07T05:26:44;0.20;;;0.10;;
55776;SDS011;54079;44.540;18.784;2023-08-07T05:29:11;0.10;;;0.10;;
55776;SDS011;54079;44.540;18.784;2023-08-07T05:31:37;1.00;;;0.30;;
55776;SDS011;54079;44.540;18.784;2023-08-07T05:34:03;0.55;;;0.30;;
55776;SDS011;54079;44.540;18.784;2023-08-07T05:36:29;0.08;;;0.08;;
55776;SDS011;54079;44.540;18.784;2023-08-07T05:38:56;0.10;;;0.10;;
55776;SDS011;54079;44.540;18.784;2023-08-07T05:41:22;1.63;;;0.30;;
55776;SDS011;54079;44.540;18.784;2023-08-07T05:43:48;0.40;;;0.40;;
55776;SDS011;54079;44.540;18.784;2023-08-07T05:46:14;0.57;;;0.38;;
55776;SDS011;54079;44.540;18.784;2023-08-07T05:48:40;0.45;;;0.43;;
55776;SDS011;54079;44.540;18.784;2023-08-07T05:51:06;0.47;;;0.47;;
55776;SDS011;54079;44.540;18.784;2023-08-07T05:53:33;0.30;;;0.30;;
55776;SDS011;54079;44.540;18.784;2023-08-07T05:56:00;1.58;;;0.95;;
55776;SDS011;54079;44.540;18.784;2023-08-07T05:58:26;1.73;;;0.68;;
55776;SDS011;54079;44.540;18.784;2023-08-07T06:00:52;1.40;;;0.57;;
55776;SDS011;54079;44.540;18.784;2023-08-07T06:03:18;1.30;;;0.85;;
55776;SDS011;54079;44.540;18.784;2023-08-07T06:05:43;0.70;;;0.50;;
55776;SDS011;54079;44.540;18.784;2023-08-07T06:08:09;0.40;;;0.40;;
55776;SDS011;54079;44.540;18.784;2023-08-07T06:10:35;0.57;;;0.47;;
55776;SDS011;54079;44.540;18.784;2023-08-07T06:13:02;1.92;;;1.58;;
55776;SDS011;54079;44.540;18.784;2023-08-07T06:15:29;1.88;;;1.55;;
55776;SDS011;54079;44.540;18.784;2023-08-07T06:17:56;2.05;;;1.35;;
55776;SDS011;54079;44.540;18.784;2023-08-07T06:20:22;0.80;;;0.80;;
55776;SDS011;54079;44.540;18.784;2023-08-07T06:22:48;0.45;;;0.45;;
55776;SDS011;54079;44.540;18.784;2023-08-07T06:25:13;1.13;;;0.60;;
55776;SDS011;54079;44.540;18.784;2023-08-07T06:27:39;2.17;;;1.65;;
55776;SDS011;54079;44.540;18.784;2023-08-07T06:30:05;1.70;;;1.40;;
55776;SDS011;54079;44.540;18.784;2023-08-07T06:32:32;1.20;;;1.10;;
55776;SDS011;54079;44.540;18.784;2023-08-07T06:34:57;3.67;;;1.48;;
55776;SDS011;54079;44.540;18.784;2023-08-07T06:37:23;2.85;;;1.67;;
55776;SDS011;54079;44.540;18.784;2023-08-07T06:39:49;1.38;;;1.25;;
55776;SDS011;54079;44.540;18.784;2023-08-07T06:42:15;1.95;;;1.40;;
55776;SDS011;54079;44.540;18.784;2023-08-07T06:44:41;1.88;;;1.50;;
55776;SDS011;54079;44.540;18.784;2023-08-07T06:47:07;2.50;;;2.30;;
55776;SDS011;54079;44.540;18.784;2023-08-07T06:49:34;3.55;;;2.03;;
55776;SDS011;54079;44.540;18.784;2023-08-07T06:52:00;1.27;;;1.00;;
55776;SDS011;54079;44.540;18.784;2023-08-07T06:54:27;1.73;;;1.30;;
55776;SDS011;54079;44.540;18.784;2023-08-07T06:56:53;2.05;;;1.27;;
55776;SDS011;54079;44.540;18.784;2023-08-07T06:59:19;1.45;;;0.70;;
55776;SDS011;54079;44.540;18.784;2023-08-07T07:01:45;0.60;;;0.60;;
55776;SDS011;54079;44.540;18.784;2023-08-07T07:04:11;1.75;;;1.02;;
55776;SDS011;54079;44.540;18.784;2023-08-07T07:06:37;1.00;;;1.00;;
55776;SDS011;54079;44.540;18.784;2023-08-07T07:09:03;0.65;;;0.65;;
55776;SDS011;54079;44.540;18.784;2023-08-07T07:11:29;0.60;;;0.60;;
55776;SDS011;54079;44.540;18.784;2023-08-07T07:13:56;2.30;;;1.60;;
55776;SDS011;54079;44.540;18.784;2023-08-07T07:16:22;1.30;;;1.20;;
55776;SDS011;54079;44.540;18.784;2023-08-07T07:18:49;0.90;;;0.77;;
55776;SDS011;54079;44.540;18.784;2023-08-07T07:21:15;1.17;;;0.80;;
55776;SDS011;54079;44.540;18.784;2023-08-07T07:23:41;1.25;;;1.15;;
55776;SDS011;54079;44.540;18.784;2023-08-07T07:26:07;0.73;;;0.60;;
55776;SDS011;54079;44.540;18.784;2023-08-07T07:28:33;3.00;;;2.10;;
55776;SDS011;54079;44.540;18.784;2023-08-07T07:30:59;0.60;;;0.60;;
55776;SDS011;54079;44.540;18.784;2023-08-07T07:33:25;2.03;;;1.10;;
55776;SDS011;54079;44.540;18.784;2023-08-07T07:35:50;2.10;;;1.90;;
55776;SDS011;54079;44.540;18.784;2023-08-07T07:38:16;0.57;;;0.57;;
55776;SDS011;54079;44.540;18.784;2023-08-07T07:40:42;0.93;;;0.93;;
55776;SDS011;54079;44.540;18.784;2023-08-07T07:43:08;1.00;;;1.00;;
55776;SDS011;54079;44.540;18.784;2023-08-07T07:45:34;2.58;;;2.13;;
55776;SDS011;54079;44.540;18.784;2023-08-07T07:48:01;1.50;;;1.40;;
55776;SDS011;54079;44.540;18.784;2023-08-07T07:50:28;1.17;;;1.08;;
55776;SDS011;54079;44.540;18.784;2023-08-07T07:52:54;1.42;;;0.82;;
55776;SDS011;54079;44.540;18.784;2023-08-07T07:55:20;0.70;;;0.50;;
55776;SDS011;54079;44.540;18.784;2023-08-07T07:57:46;0.40;;;0.40;;
55776;SDS011;54079;44.540;18.784;2023-08-07T08:00:12;0.77;;;0.55;;
55776;SDS011;54079;44.540;18.784;2023-08-07T08:02:41;0.85;;;0.73;;
55776;SDS011;54079;44.540;18.784;2023-08-07T08:05:08;0.40;;;0.40;;
55776;SDS011;54079;44.540;18.784;2023-08-07T08:07:36;2.05;;;0.90;;
55776;SDS011;54079;44.540;18.784;2023-08-07T08:10:05;1.02;;;0.60;;
55776;SDS011;54079;44.540;18.784;2023-08-07T08:12:32;0.60;;;0.60;;
55776;SDS011;54079;44.540;18.784;2023-08-07T08:14:58;0.80;;;0.80;;
55776;SDS011;54079;44.540;18.784;2023-08-07T08:17:24;1.05;;;0.80;;
55776;SDS011;54079;44.540;18.784;2023-08-07T08:19:51;0.90;;;0.90;;
55776;SDS011;54079;44.540;18.784;2023-08-07T08:22:17;1.15;;;0.40;;
55776;SDS011;54079;44.540;18.784;2023-08-07T08:24:43;0.85;;;0.85;;
55776;SDS011;54079;44.540;18.784;2023-08-07T08:27:09;0.70;;;0.70;;
55776;SDS011;54079;44.540;18.784;2023-08-07T08:29:35;1.77;;;1.30;;
55776;SDS011;54079;44.540;18.784;2023-08-07T08:32:01;1.85;;;1.73;;
55776;SDS011;54079;44.540;18.784;2023-08-07T08:34:27;2.15;;;2.05;;
55776;SDS011;54079;44.540;18.784;2023-08-07T08:36:53;2.05;;;1.95;;
55776;SDS011;54079;44.540;18.784;2023-08-07T08:39:19;1.63;;;1.40;;
55776;SDS011;54079;44.540;18.784;2023-08-07T08:41:49;1.15;;;0.90;;
55776;SDS011;54079;44.540;18.784;2023-08-07T08:46:42;0.80;;;0.80;;
55776;SDS011;54079;44.540;18.784;2023-08-07T08:49:08;0.60;;;0.60;;
55776;SDS011;54079;44.540;18.784;2023-08-07T08:51:36;1.45;;;0.80;;
55776;SDS011;54079;44.540;18.784;2023-08-07T08:54:03;0.38;;;0.38;;
55776;SDS011;54079;44.540;18.784;2023-08-07T08:56:31;0.65;;;0.40;;
55776;SDS011;54079;44.540;18.784;2023-08-07T08:58:57;1.70;;;0.68;;
55776;SDS011;54079;44.540;18.784;2023-08-07T09:01:23;0.85;;;0.85;;
55776;SDS011;54079;44.540;18.784;2023-08-07T09:03:53;1.58;;;0.45;;
55776;SDS011;54079;44.540;18.784;2023-08-07T09:06:21;0.55;;;0.52;;
55776;SDS011;54079;44.540;18.784;2023-08-07T09:08:48;0.40;;;0.40;;
55776;SDS011;54079;44.540;18.784;2023-08-07T09:11:15;0.57;;;0.57;;
55776;SDS011;54079;44.540;18.784;2023-08-07T09:13:43;0.50;;;0.50;;
55776;SDS011;54079;44.540;18.784;2023-08-07T09:16:12;1.55;;;1.10;;
55776;SDS011;54079;44.540;18.784;2023-08-07T09:18:39;2.03;;;1.70;;
55776;SDS011;54079;44.540;18.784;2023-08-07T09:21:05;0.57;;;0.32;;
55776;SDS011;54079;44.540;18.784;2023-08-07T09:23:31;0.45;;;0.30;;
55776;SDS011;54079;44.540;18.784;2023-08-07T09:26:04;0.30;;;0.30;;
55776;SDS011;54079;44.540;18.784;2023-08-07T09:28:31;0.90;;;0.90;;
55776;SDS011;54079;44.540;18.784;2023-08-07T09:30:58;0.50;;;0.50;;
55776;SDS011;54079;44.540;18.784;2023-08-07T09:33:25;0.55;;;0.35;;
55776;SDS011;54079;44.540;18.784;2023-08-07T09:35:51;0.50;;;0.38;;
55776;SDS011;54079;44.540;18.784;2023-08-07T09:38:18;0.43;;;0.40;;
55776;SDS011;54079;44.540;18.784;2023-08-07T09:40:48;0.32;;;0.32;;
55776;SDS011;54079;44.540;18.784;2023-08-07T09:43:20;0.68;;;0.60;;
55776;SDS011;54079;44.540;18.784;2023-08-07T09:45:47;0.60;;;0.40;;
55776;SDS011;54079;44.540;18.784;2023-08-07T09:48:20;0.57;;;0.57;;
55776;SDS011;54079;44.540;18.784;2023-08-07T09:50:50;0.20;;;0.20;;
55776;SDS011;54079;44.540;18.784;2023-08-07T09:53:15;1.15;;;0.70;;
55776;SDS011;54079;44.540;18.784;2023-08-07T09:55:41;2.78;;;0.57;;
55776;SDS011;54079;44.540;18.784;2023-08-07T09:58:08;1.98;;;1.30;;
55776;SDS011;54079;44.540;18.784;2023-08-07T10:00:37;0.40;;;0.40;;
55776;SDS011;54079;44.540;18.784;2023-08-07T10:03:03;0.70;;;0.50;;
55776;SDS011;54079;44.540;18.784;2023-08-07T10:05:30;0.63;;;0.47;;
55776;SDS011;54079;44.540;18.784;2023-08-07T10:07:56;1.55;;;0.20;;
55776;SDS011;54079;44.540;18.784;2023-08-07T10:10:23;1.98;;;1.10;;
55776;SDS011;54079;44.540;18.784;2023-08-07T10:12:52;0.60;;;0.60;;
55776;SDS011;54079;44.540;18.784;2023-08-07T10:15:19;0.20;;;0.20;;
55776;SDS011;54079;44.540;18.784;2023-08-07T10:17:46;0.65;;;0.40;;
55776;SDS011;54079;44.540;18.784;2023-08-07T10:20:12;0.43;;;0.40;;
55776;SDS011;54079;44.540;18.784;2023-08-07T10:22:39;1.65;;;0.50;;
55776;SDS011;54079;44.540;18.784;2023-08-07T10:25:07;0.77;;;0.50;;
55776;SDS011;54079;44.540;18.784;2023-08-07T10:27:33;0.47;;;0.40;;
55776;SDS011;54079;44.540;18.784;2023-08-07T10:30:02;0.82;;;0.60;;
55776;SDS011;54079;44.540;18.784;2023-08-07T10:32:31;0.95;;;0.55;;
55776;SDS011;54079;44.540;18.784;2023-08-07T10:34:58;2.65;;;0.68;;
55776;SDS011;54079;44.540;18.784;2023-08-07T10:37:44;0.40;;;0.40;;
55776;SDS011;54079;44.540;18.784;2023-08-07T10:40:11;0.63;;;0.52;;
55776;SDS011;54079;44.540;18.784;2023-08-07T10:45:25;0.60;;;0.30;;
55776;SDS011;54079;44.540;18.784;2023-08-07T10:51:12;0.50;;;0.50;;
55776;SDS011;54079;44.540;18.784;2023-08-07T10:53:39;1.05;;;0.70;;
55776;SDS011;54079;44.540;18.784;2023-08-07T10:56:09;0.95;;;0.40;;
55776;SDS011;54079;44.540;18.784;2023-08-07T10:58:37;2.60;;;0.52;;
55776;SDS011;54079;44.540;18.784;2023-08-07T11:03:54;2.03;;;0.50;;
55776;SDS011;54079;44.540;18.784;2023-08-07T11:06:25;1.45;;;0.40;;
55776;SDS011;54079;44.540;18.784;2023-08-07T11:08:58;0.40;;;0.30;;
55776;SDS011;54079;44.540;18.784;2023-08-07T11:11:26;1.88;;;0.40;;
55776;SDS011;54079;44.540;18.784;2023-08-07T11:13:52;1.15;;;0.40;;
55776;SDS011;54079;44.540;18.784;2023-08-07T11:16:19;0.88;;;0.50;;
55776;SDS011;54079;44.540;18.784;2023-08-07T11:18:48;0.40;;;0.35;;
55776;SDS011;54079;44.540;18.784;2023-08-07T11:21:14;0.55;;;0.20;;
55776;SDS011;54079;44.540;18.784;2023-08-07T11:23:41;1.20;;;0.50;;
55776;SDS011;54079;44.540;18.784;2023-08-07T11:26:09;0.85;;;0.65;;
55776;SDS011;54079;44.540;18.784;2023-08-07T11:28:35;0.38;;;0.38;;
55776;SDS011;54079;44.540;18.784;2023-08-07T11:31:01;1.42;;;0.20;;
55776;SDS011;54079;44.540;18.784;2023-08-07T11:33:28;0.57;;;0.50;;
55776;SDS011;54079;44.540;18.784;2023-08-07T11:35:54;2.92;;;0.50;;
55776;SDS011;54079;44.540;18.784;2023-08-07T11:41:00;0.47;;;0.20;;
55776;SDS011;54079;44.540;18.784;2023-08-07T11:43:28;0.65;;;0.35;;
55776;SDS011;54079;44.540;18.784;2023-08-07T11:45:58;0.57;;;0.32;;
55776;SDS011;54079;44.540;18.784;2023-08-07T11:48:26;0.40;;;0.40;;
55776;SDS011;54079;44.540;18.784;2023-08-07T11:50:53;0.47;;;0.40;;
55776;SDS011;54079;44.540;18.784;2023-08-07T11:53:20;0.20;;;0.20;;
55776;SDS011;54079;44.540;18.784;2023-08-07T11:55:56;1.42;;;0.70;;
55776;SDS011;54079;44.540;18.784;2023-08-07T11:58:27;0.30;;;0.30;;
55776;SDS011;54079;44.540;18.784;2023-08-07T12:00:58;0.55;;;0.30;;
55776;SDS011;54079;44.540;18.784;2023-08-07T12:03:28;1.80;;;0.30;;
55776;SDS011;54079;44.540;18.784;2023-08-07T12:05:56;0.70;;;0.43;;
55776;SDS011;54079;44.540;18.784;2023-08-07T12:08:23;0.35;;;0.35;;
55776;SDS011;54079;44.540;18.784;2023-08-07T12:10:57;0.95;;;0.22;;
55776;SDS011;54079;44.540;18.784;2023-08-07T12:13:26;0.43;;;0.30;;
55776;SDS011;54079;44.540;18.784;2023-08-07T12:15:53;0.60;;;0.40;;
55776;SDS011;54079;44.540;18.784;2023-08-07T12:18:20;1.10;;;0.55;;
55776;SDS011;54079;44.540;18.784;2023-08-07T12:20:48;0.60;;;0.43;;
55776;SDS011;54079;44.540;18.784;2023-08-07T12:23:16;1.70;;;0.45;;
55776;SDS011;54079;44.540;18.784;2023-08-07T12:25:43;1.48;;;0.40;;
55776;SDS011;54079;44.540;18.784;2023-08-07T12:28:10;0.57;;;0.38;;
55776;SDS011;54079;44.540;18.784;2023-08-07T12:30:36;3.03;;;0.28;;
55776;SDS011;54079;44.540;18.784;2023-08-07T12:33:03;0.63;;;0.32;;
55776;SDS011;54079;44.540;18.784;2023-08-07T12:35:30;0.35;;;0.30;;
55776;SDS011;54079;44.540;18.784;2023-08-07T12:37:56;0.50;;;0.43;;
55776;SDS011;54079;44.540;18.784;2023-08-07T12:40:22;0.65;;;0.20;;
55776;SDS011;54079;44.540;18.784;2023-08-07T12:42:49;0.88;;;0.30;;
55776;SDS011;54079;44.540;18.784;2023-08-07T12:45:15;2.10;;;0.57;;
55776;SDS011;54079;44.540;18.784;2023-08-07T12:47:41;1.10;;;0.60;;
55776;SDS011;54079;44.540;18.784;2023-08-07T12:50:08;0.40;;;0.28;;
55776;SDS011;54079;44.540;18.784;2023-08-07T12:52:34;0.70;;;0.20;;
55776;SDS011;54079;44.540;18.784;2023-08-07T12:55:00;0.88;;;0.60;;
55776;SDS011;54079;44.540;18.784;2023-08-07T12:57:26;0.70;;;0.30;;
55776;SDS011;54079;44.540;18.784;2023-08-07T12:59:52;1.05;;;0.30;;
55776;SDS011;54079;44.540;18.784;2023-08-07T13:02:18;0.50;;;0.25;;
55776;SDS011;54079;44.540;18.784;2023-08-07T13:04:44;0.52;;;0.40;;
55776;SDS011;54079;44.540;18.784;2023-08-07T13:07:11;0.15;;;0.13;;
55776;SDS011;54079;44.540;18.784;2023-08-07T13:09:37;0.10;;;0.10;;
55776;SDS011;54079;44.540;18.784;2023-08-07T13:12:04;0.28;;;0.08;;
55776;SDS011;54079;44.540;18.784;2023-08-07T13:14:30;0.80;;;0.20;;
55776;SDS011;54079;44.540;18.784;2023-08-07T13:16:56;0.38;;;0.22;;
55776;SDS011;54079;44.540;18.784;2023-08-07T13:19:22;0.20;;;0.20;;
55776;SDS011;54079;44.540;18.784;2023-08-07T13:21:47;0.22;;;0.20;;
55776;SDS011;54079;44.540;18.784;2023-08-07T13:24:13;0.50;;;0.25;;
55776;SDS011;54079;44.540;18.784;2023-08-07T13:26:40;1.45;;;0.63;;
55776;SDS011;54079;44.540;18.784;2023-08-07T13:29:13;0.77;;;0.30;;
55776;SDS011;54079;44.540;18.784;2023-08-07T13:31:39;4.32;;;0.75;;
55776;SDS011;54079;44.540;18.784;2023-08-07T13:34:11;0.75;;;0.45;;
55776;SDS011;54079;44.540;18.784;2023-08-07T13:39:14;0.55;;;0.40;;
55776;SDS011;54079;44.540;18.784;2023-08-07T13:41:40;0.70;;;0.17;;
55776;SDS011;54079;44.540;18.784;2023-08-07T13:46:35;0.50;;;0.50;;
55776;SDS011;54079;44.540;18.784;2023-08-07T13:49:02;0.45;;;0.32;;
55776;SDS011;54079;44.540;18.784;2023-08-07T13:51:28;0.28;;;0.10;;
55776;SDS011;54079;44.540;18.784;2023-08-07T13:53:54;0.43;;;0.20;;
55776;SDS011;54079;44.540;18.784;2023-08-07T13:58:55;0.95;;;0.73;;
55776;SDS011;54079;44.540;18.784;2023-08-07T14:01:21;0.32;;;0.30;;
55776;SDS011;54079;44.540;18.784;2023-08-07T14:03:47;0.85;;;0.20;;
55776;SDS011;54079;44.540;18.784;2023-08-07T14:06:13;0.20;;;0.13;;
55776;SDS011;54079;44.540;18.784;2023-08-07T14:08:39;0.32;;;0.13;;
55776;SDS011;54079;44.540;18.784;2023-08-07T14:11:05;0.40;;;0.30;;
55776;SDS011;54079;44.540;18.784;2023-08-07T14:13:31;1.20;;;0.73;;
55776;SDS011;54079;44.540;18.784;2023-08-07T14:15:57;1.30;;;0.60;;
55776;SDS011;54079;44.540;18.784;2023-08-07T14:18:23;1.15;;;1.00;;
55776;SDS011;54079;44.540;18.784;2023-08-07T14:20:49;1.10;;;0.98;;
55776;SDS011;54079;44.540;18.784;2023-08-07T14:23:15;2.78;;;2.03;;
55776;SDS011;54079;44.540;18.784;2023-08-07T14:25:40;4.45;;;1.63;;
55776;SDS011;54079;44.540;18.784;2023-08-07T14:28:06;1.83;;;1.20;;
55776;SDS011;54079;44.540;18.784;2023-08-07T14:30:33;2.72;;;1.40;;
55776;SDS011;54079;44.540;18.784;2023-08-07T14:32:59;2.20;;;1.33;;
55776;SDS011;54079;44.540;18.784;2023-08-07T14:35:24;1.85;;;1.02;;
55776;SDS011;54079;44.540;18.784;2023-08-07T14:37:50;2.05;;;1.23;;
55776;SDS011;54079;44.540;18.784;2023-08-07T14:40:16;1.17;;;1.08;;
55776;SDS011;54079;44.540;18.784;2023-08-07T14:42:42;1.17;;;1.05;;
55776;SDS011;54079;44.540;18.784;2023-08-07T14:45:08;1.25;;;1.00;;
55776;SDS011;54079;44.540;18.784;2023-08-07T14:47:34;0.82;;;0.50;;
55776;SDS011;54079;44.540;18.784;2023-08-07T14:50:00;2.05;;;0.95;;
55776;SDS011;54079;44.540;18.784;2023-08-07T14:52:26;1.50;;;1.40;;
55776;SDS011;54079;44.540;18.784;2023-08-07T14:54:52;3.85;;;1.05;;
55776;SDS011;54079;44.540;18.784;2023-08-07T14:57:21;1.20;;;0.85;;
55776;SDS011;54079;44.540;18.784;2023-08-07T14:59:47;2.33;;;0.70;;
55776;SDS011;54079;44.540;18.784;2023-08-07T15:02:13;1.23;;;1.08;;
55776;SDS011;54079;44.540;18.784;2023-08-07T15:04:39;1.23;;;0.80;;